Time;durP1;ratioP1;P1;durP2;ratioP2;P2;SDS_P1;SDS_P2;PMS_P1;PMS_P2;Temp;Humidity;BMP_temperature;BMP_pressure;BME280_temperature;BME280_humidity;BME280_pressure;Samples;Min_cycle;Max_cycle;Signal;HPM_P1;HPM_P2
2022/01/28 00:03:48;;;;;;;4.90;2.50;;;4.50;99.90;;;;;;5309329;23;20064;-83
2022/01/28 00:06:15;;;;;;;5.88;2.50;;;4.50;99.90;;;;;;4938073;29;20497;-84
2022/01/28 00:08:42;;;;;;;4.60;2.35;;;4.50;99.90;;;;;;4921880;29;20052;-84
2022/01/28 00:11:11;;;;;;;5.50;2.92;;;4.50;99.90;;;;;;4938191;29;20063;-83
2022/01/28 00:13:41;;;;;;;5.18;2.72;;;4.50;99.90;;;;;;4928472;29;20139;-83
2022/01/28 00:19:08;;;;;;;5.63;2.80;;;4.50;99.90;;;;;;4919452;29;20063;-84
2022/01/28 00:38:09;;;;;;;5.70;2.85;;;4.50;99.90;;;;;;4938260;29;19930;-84
2022/01/28 00:40:37;;;;;;;6.80;3.10;;;4.50;99.90;;;;;;4912654;29;20059;-84
2022/01/28 00:43:06;;;;;;;4.97;2.38;;;4.50;99.90;;;;;;4919815;29;20143;-84
2022/01/28 00:45:33;;;;;;;6.30;2.92;;;4.40;99.90;;;;;;4919380;29;20138;-84
2022/01/28 00:48:00;;;;;;;5.30;2.85;;;4.40;99.90;;;;;;4919235;29;20054;-83
2022/01/28 00:50:28;;;;;;;6.80;2.88;;;4.40;99.90;;;;;;4938157;29;20119;-85
2022/01/28 00:52:55;;;;;;;6.10;3.28;;;4.40;99.90;;;;;;4926659;29;20127;-85
2022/01/28 00:55:22;;;;;;;5.93;3.53;;;4.40;99.90;;;;;;4918797;29;20163;-84
2022/01/28 00:57:49;;;;;;;5.50;2.83;;;4.40;99.90;;;;;;4925619;29;20851;-85
2022/01/28 01:00:19;;;;;;;5.88;2.75;;;4.40;99.90;;;;;;4937914;29;20058;-85
2022/01/28 01:02:46;;;;;;;6.13;3.17;;;4.40;99.90;;;;;;4929527;29;20127;-85
2022/01/28 01:05:13;;;;;;;5.57;3.00;;;4.40;99.90;;;;;;4918638;29;20143;-85
2022/01/28 01:07:41;;;;;;;5.68;3.08;;;4.40;99.90;;;;;;4903484;29;20052;-85
2022/01/28 01:10:10;;;;;;;5.43;3.17;;;4.40;99.90;;;;;;4919057;29;20151;-86
2022/01/28 01:12:42;;;;;;;5.40;2.80;;;4.40;99.90;;;;;;4923905;29;20541;-86
2022/01/28 01:15:12;;;;;;;5.43;3.03;;;4.50;99.90;;;;;;4937629;29;20058;-86
2022/01/28 01:17:47;;;;;;;6.20;3.40;;;4.40;99.90;;;;;;4928529;29;20048;-85
2022/01/28 01:20:32;;;;;;;5.97;3.47;;;4.50;99.90;;;;;;4918470;29;20051;-84
2022/01/28 01:23:07;;;;;;;;;;;4.40;99.90;;;;;;4905903;29;20080;-85
2022/01/28 01:25:43;;;;;;;6.05;2.90;;;4.40;99.90;;;;;;4919114;29;19923;-86
2022/01/28 01:28:11;;;;;;;5.88;2.90;;;4.40;99.90;;;;;;4932730;29;20057;-87
2022/01/28 01:30:41;;;;;;;5.15;2.90;;;4.40;99.90;;;;;;4920091;29;20545;-85
2022/01/28 01:33:10;;;;;;;6.80;3.28;;;4.40;99.90;;;;;;4917869;29;20052;-86
2022/01/28 01:35:40;;;;;;;5.78;3.17;;;4.40;99.90;;;;;;4917450;29;20052;-85
2022/01/28 01:38:09;;;;;;;5.50;2.95;;;4.50;99.90;;;;;;4917503;29;20143;-85
2022/01/28 01:40:43;;;;;;;6.88;3.10;;;4.50;99.90;;;;;;4916875;29;20480;-84
2022/01/28 01:43:15;;;;;;;5.13;2.92;;;4.50;99.90;;;;;;4932659;29;20485;-86
2022/01/28 01:45:56;;;;;;;4.45;2.58;;;4.50;99.90;;;;;;4919981;29;20058;-86
2022/01/28 01:53:55;;;;;;;4.43;2.42;;;4.50;99.90;;;;;;4937142;29;20063;-86
2022/01/28 01:56:23;;;;;;;5.70;2.33;;;4.40;99.90;;;;;;4937049;29;20095;-84
2022/01/28 01:58:51;;;;;;;4.60;2.60;;;4.40;99.90;;;;;;4924327;29;20132;-86
2022/01/28 02:01:18;;;;;;;4.53;2.00;;;4.40;99.90;;;;;;4927394;29;20052;-86
2022/01/28 02:03:47;;;;;;;4.78;2.22;;;4.40;99.90;;;;;;4936962;29;20131;-85
2022/01/28 02:06:19;;;;;;;4.75;2.50;;;4.30;99.90;;;;;;4937123;29;20080;-85
2022/01/28 02:08:47;;;;;;;4.97;2.38;;;4.30;99.90;;;;;;4917416;29;20109;-86
2022/01/28 02:11:14;;;;;;;4.72;2.13;;;4.30;99.90;;;;;;4918233;29;20136;-86
2022/01/28 02:13:42;;;;;;;5.57;2.33;;;4.30;99.90;;;;;;4918269;29;20127;-86
2022/01/28 02:16:09;;;;;;;4.25;2.17;;;4.30;99.90;;;;;;4917508;29;20088;-87
2022/01/28 02:18:36;;;;;;;4.47;2.10;;;4.30;99.90;;;;;;4917950;29;20052;-85
2022/01/28 02:21:07;;;;;;;4.68;2.40;;;4.20;99.90;;;;;;4917822;29;20084;-86
2022/01/28 02:23:36;;;;;;;4.28;2.20;;;4.20;99.90;;;;;;4918311;29;20476;-87
2022/01/28 02:26:04;;;;;;;4.95;2.35;;;4.20;99.90;;;;;;4918241;29;20135;-88
2022/01/28 02:28:35;;;;;;;5.20;2.10;;;4.20;99.90;;;;;;4918052;29;20056;-87
2022/01/28 02:31:02;;;;;;;5.18;2.25;;;4.20;99.90;;;;;;4918254;29;20048;-88
2022/01/28 02:33:30;;;;;;;5.47;1.88;;;4.20;99.90;;;;;;4918222;29;20052;-87
2022/01/28 02:36:03;;;;;;;3.70;1.92;;;4.20;99.90;;;;;;4918055;29;20055;-88
2022/01/28 02:38:32;;;;;;;4.32;2.20;;;4.20;99.90;;;;;;4919475;29;20079;-88
2022/01/28 02:41:01;;;;;;;5.03;2.38;;;4.20;99.90;;;;;;4918121;29;20052;-88
2022/01/28 02:43:37;;;;;;;5.15;2.20;;;4.20;99.90;;;;;;4918160;29;20060;-88
2022/01/28 02:46:08;;;;;;;4.60;2.20;;;4.20;99.90;;;;;;4923523;29;20050;-86
2022/01/28 02:48:39;;;;;;;4.32;2.15;;;4.20;99.90;;;;;;4937027;29;20086;-87
2022/01/28 02:51:12;;;;;;;4.57;2.60;;;4.20;99.90;;;;;;4936737;29;20052;-88
2022/01/28 02:53:44;;;;;;;4.25;2.15;;;4.20;99.90;;;;;;4936792;29;20056;-88
2022/01/28 02:56:19;;;;;;;5.22;2.30;;;4.20;99.90;;;;;;4936642;29;20051;-87
2022/01/28 02:58:47;;;;;;;4.72;2.20;;;4.20;99.90;;;;;;4936901;29;20553;-88
2022/01/28 03:01:17;;;;;;;4.55;2.25;;;4.20;99.90;;;;;;4936443;29;20055;-86
2022/01/28 03:03:47;;;;;;;4.70;2.30;;;4.20;99.90;;;;;;4933997;29;20090;-86
2022/01/28 03:06:16;;;;;;;5.70;2.58;;;4.20;99.90;;;;;;4917385;29;20143;-87
2022/01/28 03:08:52;;;;;;;4.93;2.30;;;4.20;99.90;;;;;;4917571;29;20470;-87
2022/01/28 03:11:43;;;;;;;4.82;2.47;;;4.20;99.90;;;;;;4917431;29;20168;-87
2022/01/28 03:14:19;;;;;;;5.15;2.70;;;4.20;99.90;;;;;;4917029;29;20482;-88
2022/01/28 03:17:04;;;;;;;4.97;2.60;;;4.20;99.90;;;;;;4936637;29;20056;-87
2022/01/28 03:19:43;;;;;;;5.05;2.70;;;4.20;99.90;;;;;;4919244;29;20054;-86
2022/01/28 03:22:10;;;;;;;5.53;2.53;;;4.20;99.90;;;;;;4936279;29;20490;-87
2022/01/28 03:24:40;;;;;;;6.55;2.90;;;4.20;99.90;;;;;;4936400;29;20451;-87
2022/01/28 03:27:14;;;;;;;6.18;3.00;;;4.20;99.90;;;;;;4924523;29;20090;-88
2022/01/28 03:29:41;;;;;;;6.47;3.13;;;4.20;99.90;;;;;;4923996;29;20058;-87
2022/01/28 03:32:09;;;;;;;6.95;2.78;;;4.20;99.90;;;;;;4930678;29;20334;-87
2022/01/28 03:34:36;;;;;;;5.40;2.80;;;4.20;99.90;;;;;;4942521;29;20451;-87
2022/01/28 03:37:05;;;;;;;5.28;2.88;;;4.10;99.90;;;;;;4941751;29;20090;-86
2022/01/28 03:39:32;;;;;;;6.10;3.10;;;4.10;99.90;;;;;;4913874;29;20528;-87
2022/01/28 03:42:00;;;;;;;5.25;2.85;;;4.10;99.90;;;;;;4923525;29;20584;-87
2022/01/28 03:44:27;;;;;;;5.18;3.00;;;4.10;99.90;;;;;;4923580;29;20086;-88
2022/01/28 03:46:54;;;;;;;5.88;3.10;;;4.10;99.90;;;;;;4938324;29;20124;-88
2022/01/28 03:49:21;;;;;;;5.60;3.15;;;4.10;99.90;;;;;;4942411;29;20134;-86
2022/01/28 03:51:48;;;;;;;6.20;3.30;;;4.20;99.90;;;;;;4942422;29;20142;-86
2022/01/28 03:54:15;;;;;;;6.03;3.05;;;4.20;99.90;;;;;;4942295;29;20138;-86
2022/01/28 03:56:43;;;;;;;5.22;3.08;;;4.10;99.90;;;;;;4941535;29;20142;-85
2022/01/28 03:59:11;;;;;;;5.80;3.10;;;4.20;99.90;;;;;;4942384;29;20130;-86
2022/01/28 04:01:40;;;;;;;8.23;3.10;;;4.20;99.90;;;;;;4942363;29;20134;-86
2022/01/28 04:05:18;;;;;;;7.82;3.60;;;4.20;99.90;;;;;;4942157;29;20054;-86
2022/01/28 04:12:55;;;;;;;5.50;2.90;;;4.20;99.90;;;;;;4930652;29;20062;-85
2022/01/28 04:15:36;;;;;;;7.90;3.47;;;4.20;99.90;;;;;;4923120;29;20044;-86
2022/01/28 04:18:03;;;;;;;6.57;3.40;;;4.20;99.90;;;;;;4923019;29;20068;-87
2022/01/28 04:20:31;;;;;;;5.65;3.17;;;4.20;99.90;;;;;;4906796;29;20476;-88
2022/01/28 04:22:58;;;;;;;5.90;3.17;;;4.20;99.90;;;;;;4925265;29;20099;-86
2022/01/28 04:25:25;;;;;;;6.53;3.30;;;4.20;99.90;;;;;;4941821;29;20078;-84
2022/01/28 04:27:52;;;;;;;7.03;3.47;;;4.10;99.90;;;;;;4928286;29;20472;-84
2022/01/28 04:30:19;;;;;;;6.10;3.55;;;4.10;99.90;;;;;;4933672;29;20048;-84
2022/01/28 04:32:49;;;;;;;7.00;3.25;;;4.10;99.90;;;;;;4941684;29;20467;-83
2022/01/28 04:35:16;;;;;;;8.25;3.75;;;4.10;99.90;;;;;;4941460;29;20043;-83
2022/01/28 04:37:52;;;;;;;6.38;3.78;;;4.10;99.90;;;;;;4940367;29;20390;-84
2022/01/28 04:40:26;;;;;;;7.03;3.75;;;4.10;99.90;;;;;;4938537;29;20059;-85
2022/01/28 04:43:05;;;;;;;6.68;3.80;;;4.10;99.90;;;;;;4937028;29;20051;-87
2022/01/28 04:45:40;;;;;;;7.50;4.10;;;4.10;99.90;;;;;;4938717;29;20398;-87
2022/01/28 04:48:17;;;;;;;6.90;3.65;;;4.10;99.90;;;;;;4939067;29;20048;-88
2022/01/28 04:50:55;;;;;;;6.78;4.30;;;4.00;99.90;;;;;;4938810;29;20055;-86
2022/01/28 04:53:40;;;;;;;5.93;3.60;;;4.00;99.90;;;;;;4938722;29;20644;-85
2022/01/28 04:56:25;;;;;;;7.47;4.03;;;4.00;99.90;;;;;;4935132;29;20103;-87
2022/01/28 04:59:09;;;;;;;8.43;3.90;;;4.00;99.90;;;;;;4938081;29;20131;-86
2022/01/28 05:04:48;;;;;;;7.68;3.72;;;4.00;99.90;;;;;;4928010;29;20103;-86
2022/01/28 05:07:33;;;;;;;6.55;3.70;;;4.00;99.90;;;;;;4938696;29;20071;-86
2022/01/28 05:24:15;;;;;;;8.75;4.15;;;4.00;99.90;;;;;;4907517;29;20058;-79
2022/01/28 05:26:54;;;;;;;7.03;3.78;;;3.90;99.90;;;;;;4901282;29;20076;-79
2022/01/28 05:29:21;;;;;;;6.50;3.70;;;4.00;99.90;;;;;;4903865;29;20108;-79
2022/01/28 05:31:48;;;;;;;8.63;3.80;;;3.90;99.90;;;;;;4904226;29;20140;-80
2022/01/28 05:34:15;;;;;;;7.50;4.20;;;3.90;99.90;;;;;;4902767;29;20131;-80
2022/01/28 05:36:43;;;;;;;8.73;4.20;;;3.90;99.90;;;;;;4903883;29;20088;-79
2022/01/28 05:39:10;;;;;;;8.07;3.92;;;3.90;99.90;;;;;;4903800;29;20109;-78
2022/01/28 05:41:38;;;;;;;8.90;3.90;;;3.80;99.90;;;;;;4904879;29;20087;-79
2022/01/28 05:44:05;;;;;;;8.32;4.07;;;3.80;99.90;;;;;;4903104;29;20470;-79
2022/01/28 05:46:32;;;;;;;8.30;4.30;;;3.80;99.90;;;;;;4902733;29;20049;-80
2022/01/28 05:48:59;;;;;;;10.68;4.70;;;3.70;99.90;;;;;;4904176;29;20127;-79
2022/01/28 05:51:27;;;;;;;7.65;4.40;;;3.70;99.90;;;;;;4903101;29;20132;-79
2022/01/28 05:53:57;;;;;;;10.38;4.32;;;3.60;99.90;;;;;;4904360;29;20108;-79
2022/01/28 05:56:25;;;;;;;8.13;4.43;;;3.60;99.90;;;;;;4903462;29;20139;-79
2022/01/28 05:58:52;;;;;;;8.40;3.80;;;3.60;99.90;;;;;;4902860;29;20045;-78
2022/01/28 06:01:20;;;;;;;9.40;4.40;;;3.50;99.90;;;;;;4920533;29;20151;-80
2022/01/28 06:03:47;;;;;;;8.05;3.97;;;3.50;99.90;;;;;;4922641;29;20510;-79
2022/01/28 06:06:19;;;;;;;7.97;3.90;;;3.50;99.90;;;;;;4922375;29;20111;-78
2022/01/28 06:08:46;;;;;;;9.50;4.60;;;3.50;99.90;;;;;;4922814;29;20130;-79
2022/01/28 06:11:14;;;;;;;8.82;4.13;;;3.50;99.90;;;;;;4921554;29;20139;-80
2022/01/28 06:13:42;;;;;;;8.88;4.07;;;3.50;99.90;;;;;;4923060;29;20477;-80
2022/01/28 06:16:09;;;;;;;8.98;4.40;;;3.40;99.90;;;;;;4923760;29;20413;-79
2022/01/28 06:18:37;;;;;;;7.00;3.92;;;3.50;99.90;;;;;;4922319;29;20055;-80
2022/01/28 06:21:04;;;;;;;8.23;4.55;;;3.40;99.90;;;;;;4921998;29;20127;-79
2022/01/28 06:23:31;;;;;;;9.75;4.30;;;3.40;99.90;;;;;;4919959;29;20462;-80
2022/01/28 06:25:58;;;;;;;8.05;4.78;;;3.40;99.90;;;;;;4920357;29;20517;-79
2022/01/28 06:28:27;;;;;;;9.95;4.53;;;3.40;99.90;;;;;;4920410;29;20135;-79
2022/01/28 06:30:54;;;;;;;8.43;4.75;;;3.40;99.90;;;;;;4921448;29;20088;-80
2022/01/28 06:33:22;;;;;;;11.30;5.30;;;3.40;99.90;;;;;;4920073;29;20052;-80
2022/01/28 06:35:50;;;;;;;10.23;5.20;;;3.30;99.90;;;;;;4920067;29;20058;-80
2022/01/28 06:38:17;;;;;;;9.52;4.88;;;3.30;99.90;;;;;;4921083;29;20150;-80
2022/01/28 06:40:45;;;;;;;9.20;5.25;;;3.40;99.90;;;;;;4920420;29;20465;-80
2022/01/28 06:43:15;;;;;;;9.52;4.93;;;3.30;99.90;;;;;;4920690;29;20140;-79
2022/01/28 06:45:43;;;;;;;12.82;5.65;;;3.30;99.90;;;;;;4921901;29;20147;-80
2022/01/28 06:48:11;;;;;;;11.93;5.53;;;3.30;99.90;;;;;;4920992;29;20099;-79
2022/01/28 06:50:38;;;;;;;10.80;5.60;;;3.30;99.90;;;;;;4923633;29;20059;-78
2022/01/28 06:53:07;;;;;;;12.23;6.57;;;3.30;99.90;;;;;;4924828;29;20083;-79
2022/01/28 06:55:35;;;;;;;11.00;5.50;;;3.30;99.90;;;;;;4924698;29;20044;-79
2022/01/28 06:58:02;;;;;;;10.52;5.80;;;3.30;99.90;;;;;;4924791;29;20483;-80
2022/01/28 07:00:35;;;;;;;12.23;6.07;;;3.20;99.90;;;;;;4920364;29;20052;-79
2022/01/28 07:03:04;;;;;;;12.15;6.30;;;3.20;99.90;;;;;;4925258;29;20054;-78
2022/01/28 07:05:31;;;;;;;11.68;6.20;;;3.20;99.90;;;;;;4926388;29;20134;-78
2022/01/28 07:07:58;;;;;;;10.93;5.70;;;3.20;99.90;;;;;;4923842;29;20569;-79
2022/01/28 07:10:25;;;;;;;11.70;6.05;;;3.20;99.90;;;;;;4925769;29;20060;-80
2022/01/28 07:12:54;;;;;;;10.48;5.47;;;3.20;99.90;;;;;;4926168;29;20052;-79
2022/01/28 07:15:24;;;;;;;9.55;5.63;;;3.20;99.90;;;;;;4924241;29;20048;-79
2022/01/28 07:17:51;;;;;;;10.27;5.45;;;3.20;99.90;;;;;;4925153;29;20557;-80
2022/01/28 07:20:20;;;;;;;9.68;5.47;;;3.20;99.90;;;;;;4922131;29;20052;-79
2022/01/28 07:22:47;;;;;;;10.93;5.35;;;3.20;99.90;;;;;;4924344;29;20127;-79
2022/01/28 07:25:15;;;;;;;10.98;5.65;;;3.20;99.90;;;;;;4924589;29;20147;-80
2022/01/28 07:27:43;;;;;;;11.48;5.63;;;3.20;99.90;;;;;;4925269;29;20083;-79
2022/01/28 07:30:13;;;;;;;10.95;5.85;;;3.20;99.90;;;;;;4922770;29;20052;-79
2022/01/28 07:32:40;;;;;;;10.75;5.68;;;3.20;99.90;;;;;;4923823;29;20131;-79
2022/01/28 07:35:08;;;;;;;12.57;5.80;;;3.20;99.90;;;;;;4924747;29;20081;-79
2022/01/28 07:37:37;;;;;;;10.70;5.50;;;3.30;99.90;;;;;;4923487;29;20143;-80
2022/01/28 07:40:06;;;;;;;9.27;5.53;;;3.30;99.90;;;;;;4923792;29;20052;-81
2022/01/28 07:42:35;;;;;;;10.35;5.20;;;3.30;99.90;;;;;;4922550;29;20135;-79
2022/01/28 07:45:02;;;;;;;8.90;4.93;;;3.30;99.90;;;;;;4922539;29;20048;-80
2022/01/28 07:47:30;;;;;;;9.75;5.05;;;3.30;99.90;;;;;;4920379;29;20135;-78
2022/01/28 07:49:57;;;;;;;12.02;5.25;;;3.40;99.90;;;;;;4920884;29;20139;-79
2022/01/28 07:52:24;;;;;;;10.43;5.70;;;3.40;99.90;;;;;;4921792;29;20483;-78
2022/01/28 07:54:53;;;;;;;9.60;5.05;;;3.40;99.90;;;;;;4921877;29;20071;-80
2022/01/28 07:57:20;;;;;;;11.00;5.05;;;3.40;99.90;;;;;;4919257;29;20056;-79
2022/01/28 07:59:47;;;;;;;11.15;5.10;;;3.40;99.90;;;;;;4921520;29;20096;-81
2022/01/28 08:02:14;;;;;;;10.27;5.45;;;3.40;99.90;;;;;;4921033;29;20131;-79
2022/01/28 08:04:41;;;;;;;11.35;5.72;;;3.40;99.90;;;;;;4922186;29;20478;-78
2022/01/28 08:07:09;;;;;;;12.20;5.35;;;3.40;99.90;;;;;;4920556;29;20130;-79
2022/01/28 08:09:36;;;;;;;10.50;5.53;;;3.40;99.90;;;;;;4919577;29;20059;-78
2022/01/28 08:12:05;;;;;;;11.40;5.40;;;3.50;99.90;;;;;;4920439;29;20146;-79
2022/01/28 08:14:33;;;;;;;11.52;5.57;;;3.50;99.90;;;;;;4923336;29;20091;-78
2022/01/28 08:17:00;;;;;;;10.82;5.95;;;3.60;99.90;;;;;;4924912;29;20056;-79
2022/01/28 08:19:27;;;;;;;11.40;5.30;;;3.60;99.90;;;;;;4925984;29;20084;-78
2022/01/28 08:21:54;;;;;;;10.88;5.43;;;3.60;99.90;;;;;;4926234;29;20136;-80
2022/01/28 08:24:21;;;;;;;12.48;5.90;;;3.60;99.90;;;;;;4924009;29;20123;-80
2022/01/28 08:26:49;;;;;;;10.93;4.93;;;3.60;99.90;;;;;;4925083;29;20139;-79
2022/01/28 08:29:17;;;;;;;10.88;5.47;;;3.60;99.90;;;;;;4924929;29;20051;-80
2022/01/28 08:31:44;;;;;;;9.90;5.57;;;3.60;99.90;;;;;;4927250;29;20482;-79
2022/01/28 08:34:11;;;;;;;11.27;5.72;;;3.70;99.90;;;;;;4927416;29;20112;-79
2022/01/28 08:36:39;;;;;;;10.55;5.20;;;3.80;99.90;;;;;;4926547;29;20131;-79
2022/01/28 08:39:09;;;;;;;11.85;5.70;;;3.70;99.90;;;;;;4922987;29;20132;-80
2022/01/28 08:41:39;;;;;;;12.95;5.60;;;3.80;99.90;;;;;;4923033;29;20054;-80
2022/01/28 08:44:06;;;;;;;10.80;5.93;;;3.80;99.90;;;;;;4926734;29;20085;-79
2022/01/28 08:46:35;;;;;;;10.10;5.32;;;3.80;99.90;;;;;;4926597;29;20229;-79
2022/01/28 08:49:03;;;;;;;11.10;5.43;;;3.80;99.90;;;;;;4924347;29;20131;-79
2022/01/28 08:51:30;;;;;;;11.05;5.45;;;3.80;99.90;;;;;;4927028;29;20052;-79
2022/01/28 08:53:57;;;;;;;10.13;5.28;;;3.80;99.90;;;;;;4924991;29;20056;-80
2022/01/28 08:56:24;;;;;;;7.93;4.65;;;3.80;99.90;;;;;;4924719;29;20588;-79
2022/01/28 08:58:51;;;;;;;10.98;5.43;;;3.90;99.90;;;;;;4924223;29;20139;-79
2022/01/28 09:01:18;;;;;;;11.40;5.43;;;3.90;99.90;;;;;;4924046;29;20504;-79
2022/01/28 09:03:48;;;;;;;11.70;5.50;;;3.90;99.90;;;;;;4924059;29;20472;-79
2022/01/28 09:06:15;;;;;;;10.30;5.35;;;3.90;99.90;;;;;;4922227;29;20054;-77
2022/01/28 09:08:43;;;;;;;10.63;5.18;;;4.00;99.90;;;;;;4921594;29;20273;-80
2022/01/28 09:13:52;;;;;;;9.65;5.55;;;4.00;99.90;;;;;;4923483;29;20474;-79
2022/01/28 09:16:21;;;;;;;10.98;5.25;;;4.10;99.90;;;;;;4922657;29;20584;-79
2022/01/28 09:18:50;;;;;;;10.30;5.43;;;4.10;99.90;;;;;;4922566;29;20056;-79
2022/01/28 09:21:17;;;;;;;9.63;5.45;;;4.10;99.90;;;;;;4924282;29;20095;-79
2022/01/28 09:23:46;;;;;;;12.75;5.50;;;4.20;99.90;;;;;;4921842;29;20135;-79
2022/01/28 09:26:13;;;;;;;10.65;5.53;;;4.20;99.90;;;;;;4921520;29;20052;-79
2022/01/28 09:28:42;;;;;;;10.05;5.03;;;4.20;99.90;;;;;;4923073;29;20123;-79
2022/01/28 09:31:09;;;;;;;11.73;5.25;;;4.30;99.90;;;;;;4923844;29;20052;-79
2022/01/28 09:33:37;;;;;;;9.32;4.85;;;4.30;99.90;;;;;;4920501;29;20142;-79
2022/01/28 09:36:06;;;;;;;10.45;5.00;;;4.40;99.90;;;;;;4922398;29;20100;-79
2022/01/28 09:38:33;;;;;;;10.43;4.72;;;4.40;99.90;;;;;;4924350;29;20139;-78
2022/01/28 09:41:04;;;;;;;8.43;4.63;;;4.50;99.90;;;;;;4919923;29;20127;-80
2022/01/28 09:43:32;;;;;;;12.15;5.10;;;4.50;99.90;;;;;;4921295;29;20055;-78
2022/01/28 09:45:59;;;;;;;10.68;5.00;;;4.50;99.90;;;;;;4921271;29;20052;-79
2022/01/28 09:48:26;;;;;;;11.75;5.00;;;4.60;99.90;;;;;;4920057;29;20477;-79
2022/01/28 09:50:54;;;;;;;11.95;5.47;;;4.60;99.90;;;;;;4919937;29;20168;-79
2022/01/28 09:53:22;;;;;;;9.85;4.88;;;4.60;99.90;;;;;;4918816;29;20140;-79
2022/01/28 09:55:50;;;;;;;8.65;4.88;;;4.70;99.90;;;;;;4918413;29;20063;-80
2022/01/28 09:58:17;;;;;;;9.77;4.70;;;4.80;99.90;;;;;;4918208;29;20066;-79
2022/01/28 10:00:45;;;;;;;9.63;4.65;;;4.80;99.90;;;;;;4918321;29;20051;-79
2022/01/28 10:03:14;;;;;;;8.68;3.53;;;4.90;99.90;;;;;;4917952;29;20054;-79
2022/01/28 10:05:43;;;;;;;8.35;4.00;;;4.90;99.90;;;;;;4917993;29;20054;-79
2022/01/28 10:08:13;;;;;;;9.45;4.10;;;4.90;99.90;;;;;;4918033;29;20135;-78
2022/01/28 10:11:02;;;;;;;10.38;3.80;;;5.00;99.90;;;;;;4918023;29;20056;-79
2022/01/28 10:13:35;;;;;;;8.80;3.65;;;5.10;99.90;;;;;;4917865;29;20049;-79
2022/01/28 10:16:10;;;;;;;9.20;3.55;;;5.10;99.90;;;;;;4918192;29;20129;-80
2022/01/28 10:18:51;;;;;;;9.05;4.03;;;5.10;99.70;;;;;;4918249;29;20087;-80
2022/01/28 10:21:25;;;;;;;7.03;3.33;;;5.20;99.80;;;;;;4916220;29;20147;-78
2022/01/28 10:24:14;;;;;;;7.72;3.38;;;5.30;99.50;;;;;;4914659;29;20131;-77
2022/01/28 10:26:48;;;;;;;7.28;2.78;;;5.30;99.50;;;;;;4904726;29;20160;-82
2022/01/28 10:29:18;;;;;;;8.77;3.72;;;5.40;98.50;;;;;;4902071;29;20828;-79
2022/01/28 10:31:53;;;;;;;7.63;3.00;;;5.50;98.40;;;;;;4906097;29;20481;-79
2022/01/28 10:34:27;;;;;;;8.15;3.15;;;5.50;97.90;;;;;;4910078;29;20131;-80
2022/01/28 10:37:10;;;;;;;11.67;3.57;;;5.60;97.70;;;;;;4906515;29;20054;-81
2022/01/28 10:39:48;;;;;;;8.23;3.15;;;5.60;98.00;;;;;;4917410;29;20557;-80
2022/01/28 10:42:19;;;;;;;6.70;2.92;;;5.60;97.80;;;;;;4910031;29;20562;-81
2022/01/28 10:44:59;;;;;;;10.48;3.30;;;5.60;98.20;;;;;;4917213;29;20068;-80
2022/01/28 10:47:36;;;;;;;7.75;2.55;;;5.70;97.90;;;;;;4917504;29;20067;-79
2022/01/28 10:50:22;;;;;;;9.63;2.97;;;5.70;97.80;;;;;;4918160;29;20094;-82
2022/01/28 10:53:05;;;;;;;8.68;2.83;;;5.80;97.70;;;;;;4920548;29;20529;-79
2022/01/28 10:55:35;;;;;;;6.30;2.53;;;5.80;96.90;;;;;;4917314;29;20050;-81
2022/01/28 10:58:06;;;;;;;8.80;2.53;;;5.90;96.50;;;;;;4915825;29;20408;-80
2022/01/28 11:00:36;;;;;;;6.32;2.35;;;5.90;96.60;;;;;;4917442;29;20079;-80
2022/01/28 11:03:06;;;;;;;5.18;2.00;;;5.90;96.00;;;;;;4909366;29;20132;-81
2022/01/28 11:05:35;;;;;;;6.60;2.22;;;5.90;95.40;;;;;;4882180;29;20144;-79
2022/01/28 11:08:06;;;;;;;6.43;2.10;;;5.90;96.20;;;;;;4907624;29;20135;-81
2022/01/28 11:10:33;;;;;;;6.30;2.10;;;6.00;94.60;;;;;;4907489;29;20053;-81
2022/01/28 11:13:04;;;;;;;6.45;1.95;;;6.00;94.80;;;;;;4903563;29;20123;-79
2022/01/28 11:15:32;;;;;;;4.88;1.90;;;6.00;95.30;;;;;;4912692;29;20124;-81
2022/01/28 11:18:03;;;;;;;6.30;1.70;;;6.10;95.50;;;;;;4898163;29;20253;-82
2022/01/28 11:20:35;;;;;;;7.57;1.70;;;6.20;94.40;;;;;;4881748;29;20053;-79
2022/01/28 11:23:26;;;;;;;5.82;1.92;;;6.20;93.00;;;;;;4905092;29;20135;-80
2022/01/28 11:26:07;;;;;;;7.10;1.88;;;6.30;93.40;;;;;;4900136;29;20414;-80
2022/01/28 11:28:45;;;;;;;6.07;1.92;;;6.30;92.90;;;;;;4912518;29;20052;-79
2022/01/28 11:31:14;;;;;;;6.43;1.98;;;6.30;92.50;;;;;;4898608;29;20087;-80
2022/01/28 11:33:48;;;;;;;5.75;1.50;;;6.30;93.10;;;;;;4899299;29;20140;-79
2022/01/28 11:36:31;;;;;;;7.20;1.63;;;6.30;92.90;;;;;;4902075;29;20063;-80
2022/01/28 11:39:08;;;;;;;6.47;1.70;;;6.30;93.20;;;;;;4897790;29;20060;-80
2022/01/28 11:41:36;;;;;;;7.10;1.83;;;6.30;93.60;;;;;;4911589;29;20147;-79
2022/01/28 11:44:05;;;;;;;5.60;1.73;;;6.30;93.40;;;;;;4900718;29;20048;-79
2022/01/28 11:46:38;;;;;;;7.55;1.60;;;6.40;93.00;;;;;;4909482;29;20059;-80
2022/01/28 11:49:22;;;;;;;9.13;2.10;;;6.40;93.10;;;;;;4902627;29;20058;-80
2022/01/28 11:51:50;;;;;;;5.32;1.80;;;6.40;92.90;;;;;;4901719;29;20177;-78
2022/01/28 11:54:23;;;;;;;7.15;1.60;;;6.50;92.50;;;;;;4904374;29;20131;-79
2022/01/28 11:57:19;;;;;;;6.95;1.90;;;6.50;92.10;;;;;;4910569;29;20064;-79
2022/01/28 11:59:48;;;;;;;8.27;1.95;;;6.50;92.10;;;;;;4901918;29;20076;-80
2022/01/28 12:02:20;;;;;;;7.07;1.92;;;6.50;92.30;;;;;;4905173;29;20048;-78
2022/01/28 12:04:47;;;;;;;7.90;1.90;;;6.50;92.00;;;;;;4920165;29;20565;-79
2022/01/28 12:07:19;;;;;;;7.40;2.10;;;6.50;92.50;;;;;;4912104;29;20100;-80
2022/01/28 12:09:50;;;;;;;5.05;1.77;;;6.60;92.50;;;;;;4903174;29;20161;-80
2022/01/28 12:12:58;;;;;;;5.22;1.55;;;6.60;92.40;;;;;;4907782;29;20391;-78
2022/01/28 12:15:30;;;;;;;6.10;1.67;;;6.70;91.70;;;;;;4914519;29;20052;-77
2022/01/28 12:18:15;;;;;;;6.53;1.98;;;6.80;91.10;;;;;;4910776;29;20053;-78
2022/01/28 12:20:48;;;;;;;6.82;2.10;;;6.70;91.10;;;;;;4916701;29;20502;-77
2022/01/28 12:23:30;;;;;;;6.32;2.05;;;6.60;90.70;;;;;;4911323;29;20059;-78
2022/01/28 12:26:01;;;;;;;6.60;1.80;;;6.60;91.00;;;;;;4913686;29;20048;-78
2022/01/28 12:28:52;;;;;;;6.18;1.77;;;6.60;90.70;;;;;;4919422;29;20090;-78
2022/01/28 12:31:36;;;;;;;7.07;1.85;;;6.60;90.90;;;;;;4919549;29;20123;-78
2022/01/28 12:34:05;;;;;;;5.32;1.65;;;6.70;90.50;;;;;;4911242;29;20554;-77
2022/01/28 12:36:38;;;;;;;5.72;2.00;;;6.70;90.20;;;;;;4917348;29;20044;-78
2022/01/28 12:39:12;;;;;;;23.27;7.38;;;6.70;90.10;;;;;;4913508;29;20048;-77
2022/01/28 12:41:55;;;;;;;4.50;1.42;;;6.60;88.90;;;;;;4912859;29;20040;-77
2022/01/28 12:44:24;;;;;;;6.05;1.40;;;6.60;86.50;;;;;;4918589;29;20420;-76
2022/01/28 12:47:10;;;;;;;4.93;1.52;;;6.60;86.30;;;;;;4908893;29;20395;-77
2022/01/28 12:49:40;;;;;;;5.13;1.75;;;6.50;87.30;;;;;;4915281;29;20048;-77
2022/01/28 12:52:09;;;;;;;6.80;1.50;;;6.50;88.00;;;;;;4915224;29;20399;-78
2022/01/28 12:54:40;;;;;;;4.93;1.40;;;6.50;88.80;;;;;;4900563;29;20164;-79
2022/01/28 12:57:09;;;;;;;5.93;1.70;;;6.60;89.20;;;;;;4900139;29;20044;-79
2022/01/28 12:59:38;;;;;;;5.60;1.42;;;6.60;89.20;;;;;;4899533;29;20080;-79
2022/01/28 13:02:06;;;;;;;5.38;1.70;;;6.60;90.10;;;;;;4918518;29;20080;-79
2022/01/28 13:04:50;;;;;;;6.78;2.17;;;6.80;90.50;;;;;;4902793;29;20148;-80
2022/01/28 13:10:04;;;;;;;4.35;1.90;;;7.30;88.60;;;;;;4918785;29;20564;-77
2022/01/28 13:12:32;;;;;;;5.78;1.65;;;7.30;84.30;;;;;;4918473;29;20123;-77
2022/01/28 13:15:08;;;;;;;4.95;1.30;;;7.20;82.80;;;;;;4917715;29;20139;-76
2022/01/28 13:17:38;;;;;;;7.07;1.40;;;7.10;82.60;;;;;;4918191;29;20060;-77
2022/01/28 13:20:09;;;;;;;5.18;1.50;;;7.10;82.90;;;;;;4918544;29;20143;-79
2022/01/28 13:22:38;;;;;;;4.43;1.17;;;7.10;83.70;;;;;;4917645;29;20052;-79
2022/01/28 13:25:18;;;;;;;5.70;1.77;;;7.00;84.60;;;;;;4918107;29;20094;-79
2022/01/28 13:27:48;;;;;;;4.35;1.20;;;7.00;84.30;;;;;;4903080;29;20055;-78
2022/01/28 13:30:18;;;;;;;5.28;1.30;;;7.00;84.50;;;;;;4918124;29;20509;-80
2022/01/28 13:32:49;;;;;;;5.85;1.38;;;6.90;84.70;;;;;;4918210;29;20084;-80
2022/01/28 13:35:19;;;;;;;6.10;1.73;;;6.90;85.20;;;;;;4917982;29;20087;-79
2022/01/28 13:37:48;;;;;;;5.97;1.55;;;7.10;87.90;;;;;;4917775;29;20486;-77
2022/01/28 13:40:33;;;;;;;4.80;1.33;;;7.30;84.50;;;;;;4918068;29;20087;-79
2022/01/28 13:43:03;;;;;;;6.70;1.52;;;7.30;84.90;;;;;;4914306;29;20047;-78
2022/01/28 13:45:34;;;;;;;5.63;1.73;;;7.30;84.90;;;;;;4916530;29;20143;-79
2022/01/28 13:48:05;;;;;;;4.72;1.50;;;7.20;85.20;;;;;;4917880;29;20075;-79
2022/01/28 13:50:36;;;;;;;4.10;1.45;;;7.30;86.80;;;;;;4918226;29;20083;-79
2022/01/28 13:55:55;;;;;;;5.10;1.55;;;8.90;79.10;;;;;;4918146;29;20470;-79
2022/01/28 13:58:23;;;;;;;7.40;1.80;;;8.80;76.00;;;;;;4917572;29;20052;-78
2022/01/28 14:00:52;;;;;;;5.38;2.00;;;9.60;73.70;;;;;;4917500;29;20134;-77
2022/01/28 14:03:23;;;;;;;6.70;1.60;;;9.50;72.20;;;;;;4917731;29;20090;-80
2022/01/28 14:05:53;;;;;;;6.95;2.20;;;9.20;73.50;;;;;;4917363;29;20135;-78
2022/01/28 14:08:41;;;;;;;6.40;2.20;;;8.90;75.10;;;;;;4903570;29;20111;-77
2022/01/28 14:11:29;;;;;;;5.22;1.92;;;9.10;74.80;;;;;;4915881;29;20131;-79
2022/01/28 14:14:16;;;;;;;4.75;2.10;;;8.90;75.20;;;;;;4901432;29;20048;-79